sensor_id;sensor_type;location;lat;lon;timestamp;temperature;humidity
27164;DHT22;14685;50.618;7.024;2022-11-09T00:00:06;16.40;99.90
27164;DHT22;14685;50.618;7.024;2022-11-09T00:02:33;16.40;99.90
27164;DHT22;14685;50.618;7.024;2022-11-09T00:05:00;16.40;99.90
27164;DHT22;14685;50.618;7.024;2022-11-09T00:07:29;16.40;99.90
27164;DHT22;14685;50.618;7.024;2022-11-09T00:09:57;16.40;99.90
27164;DHT22;14685;50.618;7.024;2022-11-09T00:12:23;16.40;99.90
27164;DHT22;14685;50.618;7.024;2022-11-09T00:14:51;16.40;99.90
27164;DHT22;14685;50.618;7.024;2022-11-09T00:17:20;16.40;99.90
27164;DHT22;14685;50.618;7.024;2022-11-09T00:19:47;16.30;99.90
27164;DHT22;14685;50.618;7.024;2022-11-09T00:22:14;16.30;99.90
27164;DHT22;14685;50.618;7.024;2022-11-09T00:24:41;16.30;99.90
27164;DHT22;14685;50.618;7.024;2022-11-09T00:27:09;16.30;99.90
27164;DHT22;14685;50.618;7.024;2022-11-09T00:29:43;16.30;99.90
27164;DHT22;14685;50.618;7.024;2022-11-09T00:32:09;16.30;99.90
27164;DHT22;14685;50.618;7.024;2022-11-09T00:34:36;16.30;99.90
27164;DHT22;14685;50.618;7.024;2022-11-09T00:37:03;16.30;99.90
27164;DHT22;14685;50.618;7.024;2022-11-09T00:39:30;16.40;99.90
27164;DHT22;14685;50.618;7.024;2022-11-09T00:41:56;16.40;99.90
27164;DHT22;14685;50.618;7.024;2022-11-09T00:44:24;16.40;99.90
27164;DHT22;14685;50.618;7.024;2022-11-09T00:46:51;16.40;99.90
27164;DHT22;14685;50.618;7.024;2022-11-09T00:49:18;16.40;99.90
27164;DHT22;14685;50.618;7.024;2022-11-09T00:51:45;16.40;99.90
27164;DHT22;14685;50.618;7.024;2022-11-09T00:54:12;16.40;99.90
27164;DHT22;14685;50.618;7.024;2022-11-09T00:56:38;16.40;99.90
27164;DHT22;14685;50.618;7.024;2022-11-09T00:59:07;16.50;99.90
27164;DHT22;14685;50.618;7.024;2022-11-09T01:01:36;16.50;99.90
27164;DHT22;14685;50.618;7.024;2022-11-09T01:04:03;16.50;99.90
27164;DHT22;14685;50.618;7.024;2022-11-09T01:06:30;16.50;99.90
27164;DHT22;14685;50.618;7.024;2022-11-09T01:08:59;16.50;99.90
27164;DHT22;14685;50.618;7.024;2022-11-09T01:11:27;16.50;99.90
27164;DHT22;14685;50.618;7.024;2022-11-09T01:13:54;16.50;99.90
27164;DHT22;14685;50.618;7.024;2022-11-09T01:16:23;16.60;99.90
27164;DHT22;14685;50.618;7.024;2022-11-09T01:18:55;16.60;99.90
27164;DHT22;14685;50.618;7.024;2022-11-09T01:21:22;16.60;99.90
27164;DHT22;14685;50.618;7.024;2022-11-09T01:23:50;16.60;99.90
27164;DHT22;14685;50.618;7.024;2022-11-09T01:26:16;16.60;99.90
27164;DHT22;14685;50.618;7.024;2022-11-09T01:28:44;16.60;99.90
27164;DHT22;14685;50.618;7.024;2022-11-09T01:31:13;16.60;99.90
27164;DHT22;14685;50.618;7.024;2022-11-09T01:33:40;16.60;99.90
27164;DHT22;14685;50.618;7.024;2022-11-09T01:36:11;16.60;99.90
27164;DHT22;14685;50.618;7.024;2022-11-09T01:38:39;16.60;99.90
27164;DHT22;14685;50.618;7.024;2022-11-09T01:41:08;16.60;99.90
27164;DHT22;14685;50.618;7.024;2022-11-09T01:43:38;16.60;99.90
27164;DHT22;14685;50.618;7.024;2022-11-09T01:46:14;16.60;99.90
27164;DHT22;14685;50.618;7.024;2022-11-09T01:48:54;16.60;99.90
27164;DHT22;14685;50.618;7.024;2022-11-09T01:51:49;16.60;99.90
27164;DHT22;14685;50.618;7.024;2022-11-09T01:54:21;16.60;99.90
27164;DHT22;14685;50.618;7.024;2022-11-09T01:56:54;16.60;99.90
27164;DHT22;14685;50.618;7.024;2022-11-09T01:59:25;16.60;99.90
27164;DHT22;14685;50.618;7.024;2022-11-09T02:01:53;16.60;99.90
27164;DHT22;14685;50.618;7.024;2022-11-09T02:04:29;16.60;99.90
27164;DHT22;14685;50.618;7.024;2022-11-09T02:06:58;16.60;99.90
27164;DHT22;14685;50.618;7.024;2022-11-09T02:09:26;16.60;99.90
27164;DHT22;14685;50.618;7.024;2022-11-09T02:11:54;16.60;99.90
27164;DHT22;14685;50.618;7.024;2022-11-09T02:14:24;16.60;99.90
27164;DHT22;14685;50.618;7.024;2022-11-09T02:16:52;16.60;99.90
27164;DHT22;14685;50.618;7.024;2022-11-09T02:19:18;16.50;99.90
27164;DHT22;14685;50.618;7.024;2022-11-09T02:21:45;16.60;99.90
27164;DHT22;14685;50.618;7.024;2022-11-09T02:24:12;16.50;99.90
27164;DHT22;14685;50.618;7.024;2022-11-09T02:26:43;16.50;99.90
27164;DHT22;14685;50.618;7.024;2022-11-09T02:29:16;16.50;99.90
27164;DHT22;14685;50.618;7.024;2022-11-09T02:31:48;16.50;99.90
27164;DHT22;14685;50.618;7.024;2022-11-09T02:34:18;16.60;99.90
27164;DHT22;14685;50.618;7.024;2022-11-09T02:36:46;16.60;99.90
27164;DHT22;14685;50.618;7.024;2022-11-09T02:39:15;16.60;99.90
27164;DHT22;14685;50.618;7.024;2022-11-09T02:41:52;16.50;99.90
27164;DHT22;14685;50.618;7.024;2022-11-09T02:44:19;16.60;99.90
27164;DHT22;14685;50.618;7.024;2022-11-09T02:46:46;16.60;99.90
27164;DHT22;14685;50.618;7.024;2022-11-09T02:49:13;16.60;99.90
27164;DHT22;14685;50.618;7.024;2022-11-09T02:51:40;16.60;99.90
27164;DHT22;14685;50.618;7.024;2022-11-09T02:54:06;16.60;99.90
27164;DHT22;14685;50.618;7.024;2022-11-09T02:56:33;16.60;99.90
27164;DHT22;14685;50.618;7.024;2022-11-09T02:59:00;16.60;99.90
27164;DHT22;14685;50.618;7.024;2022-11-09T03:01:30;16.60;99.90
27164;DHT22;14685;50.618;7.024;2022-11-09T03:03:57;16.60;99.90
27164;DHT22;14685;50.618;7.024;2022-11-09T03:06:23;16.50;99.90
27164;DHT22;14685;50.618;7.024;2022-11-09T03:09:05;16.50;99.90
27164;DHT22;14685;50.618;7.024;2022-11-09T03:11:32;16.50;99.90
27164;DHT22;14685;50.618;7.024;2022-11-09T03:13:59;16.50;99.90
27164;DHT22;14685;50.618;7.024;2022-11-09T03:16:26;16.50;99.90
27164;DHT22;14685;50.618;7.024;2022-11-09T03:18:54;16.40;99.90
27164;DHT22;14685;50.618;7.024;2022-11-09T03:21:23;16.40;99.90
27164;DHT22;14685;50.618;7.024;2022-11-09T03:23:51;16.40;99.90
27164;DHT22;14685;50.618;7.024;2022-11-09T03:26:17;16.40;99.90
27164;DHT22;14685;50.618;7.024;2022-11-09T03:28:44;16.40;99.90
27164;DHT22;14685;50.618;7.024;2022-11-09T03:31:13;16.30;99.90
27164;DHT22;14685;50.618;7.024;2022-11-09T03:33:40;16.30;99.90
27164;DHT22;14685;50.618;7.024;2022-11-09T03:36:08;16.30;99.90
27164;DHT22;14685;50.618;7.024;2022-11-09T03:38:38;16.20;99.90
27164;DHT22;14685;50.618;7.024;2022-11-09T03:41:05;16.20;99.90
27164;DHT22;14685;50.618;7.024;2022-11-09T03:43:33;16.20;99.90
27164;DHT22;14685;50.618;7.024;2022-11-09T03:46:00;16.30;99.90
27164;DHT22;14685;50.618;7.024;2022-11-09T03:48:27;16.30;99.90
27164;DHT22;14685;50.618;7.024;2022-11-09T03:50:54;16.30;99.90
27164;DHT22;14685;50.618;7.024;2022-11-09T03:53:20;16.30;99.90
27164;DHT22;14685;50.618;7.024;2022-11-09T03:55:50;16.30;99.90
27164;DHT22;14685;50.618;7.024;2022-11-09T03:58:17;16.20;99.90
27164;DHT22;14685;50.618;7.024;2022-11-09T04:00:44;16.20;99.90
27164;DHT22;14685;50.618;7.024;2022-11-09T04:03:10;16.30;99.90
27164;DHT22;14685;50.618;7.024;2022-11-09T04:05:37;16.20;99.90
27164;DHT22;14685;50.618;7.024;2022-11-09T04:08:04;16.20;99.90
27164;DHT22;14685;50.618;7.024;2022-11-09T04:10:31;16.20;99.90
27164;DHT22;14685;50.618;7.024;2022-11-09T04:12:57;16.20;99.90
27164;DHT22;14685;50.618;7.024;2022-11-09T04:15:24;16.20;99.90
27164;DHT22;14685;50.618;7.024;2022-11-09T04:17:55;16.20;99.90
27164;DHT22;14685;50.618;7.024;2022-11-09T04:20:23;16.20;99.90
27164;DHT22;14685;50.618;7.024;2022-11-09T04:22:54;16.20;99.90
27164;DHT22;14685;50.618;7.024;2022-11-09T04:25:21;16.20;99.90
27164;DHT22;14685;50.618;7.024;2022-11-09T04:27:53;16.20;99.90
27164;DHT22;14685;50.618;7.024;2022-11-09T04:30:20;16.30;99.90
27164;DHT22;14685;50.618;7.024;2022-11-09T04:32:47;16.30;99.90
27164;DHT22;14685;50.618;7.024;2022-11-09T04:35:14;16.30;99.90
27164;DHT22;14685;50.618;7.024;2022-11-09T04:37:41;16.30;99.90
27164;DHT22;14685;50.618;7.024;2022-11-09T04:40:09;16.40;99.90
27164;DHT22;14685;50.618;7.024;2022-11-09T04:42:36;16.40;99.90
27164;DHT22;14685;50.618;7.024;2022-11-09T04:45:02;16.40;99.90
27164;DHT22;14685;50.618;7.024;2022-11-09T04:47:29;16.50;99.90
27164;DHT22;14685;50.618;7.024;2022-11-09T04:49:56;16.50;99.90
27164;DHT22;14685;50.618;7.024;2022-11-09T04:52:23;16.40;99.90
27164;DHT22;14685;50.618;7.024;2022-11-09T04:54:51;16.50;99.90
27164;DHT22;14685;50.618;7.024;2022-11-09T04:57:19;16.40;99.90
27164;DHT22;14685;50.618;7.024;2022-11-09T04:59:46;16.50;99.90
27164;DHT22;14685;50.618;7.024;2022-11-09T05:02:13;16.50;99.90
27164;DHT22;14685;50.618;7.024;2022-11-09T05:04:39;16.50;99.90
27164;DHT22;14685;50.618;7.024;2022-11-09T05:07:06;16.50;99.90
27164;DHT22;14685;50.618;7.024;2022-11-09T05:09:33;16.50;99.90
27164;DHT22;14685;50.618;7.024;2022-11-09T05:12:00;16.50;99.90
27164;DHT22;14685;50.618;7.024;2022-11-09T05:14:27;16.40;99.90
27164;DHT22;14685;50.618;7.024;2022-11-09T05:16:53;16.50;99.90
27164;DHT22;14685;50.618;7.024;2022-11-09T05:19:20;16.50;99.90
27164;DHT22;14685;50.618;7.024;2022-11-09T05:21:47;16.50;99.90
27164;DHT22;14685;50.618;7.024;2022-11-09T05:24:14;16.50;99.90
27164;DHT22;14685;50.618;7.024;2022-11-09T05:26:41;16.60;99.90
27164;DHT22;14685;50.618;7.024;2022-11-09T05:29:10;16.60;99.90
27164;DHT22;14685;50.618;7.024;2022-11-09T05:31:38;16.60;99.90
27164;DHT22;14685;50.618;7.024;2022-11-09T05:34:06;16.60;99.90
27164;DHT22;14685;50.618;7.024;2022-11-09T05:36:33;16.60;99.90
27164;DHT22;14685;50.618;7.024;2022-11-09T05:39:00;16.60;99.90
27164;DHT22;14685;50.618;7.024;2022-11-09T05:41:27;16.60;99.90
27164;DHT22;14685;50.618;7.024;2022-11-09T05:43:55;16.60;99.90
27164;DHT22;14685;50.618;7.024;2022-11-09T05:46:23;16.60;99.90
27164;DHT22;14685;50.618;7.024;2022-11-09T05:48:50;16.60;99.90
27164;DHT22;14685;50.618;7.024;2022-11-09T05:51:17;16.70;99.90
27164;DHT22;14685;50.618;7.024;2022-11-09T05:53:44;16.60;99.90
27164;DHT22;14685;50.618;7.024;2022-11-09T05:56:13;16.60;99.90
27164;DHT22;14685;50.618;7.024;2022-11-09T05:58:40;16.60;99.90
27164;DHT22;14685;50.618;7.024;2022-11-09T06:01:09;16.60;99.90
27164;DHT22;14685;50.618;7.024;2022-11-09T06:03:39;16.60;99.90
27164;DHT22;14685;50.618;7.024;2022-11-09T06:06:10;16.60;99.90
27164;DHT22;14685;50.618;7.024;2022-11-09T06:08:37;16.60;99.90
27164;DHT22;14685;50.618;7.024;2022-11-09T06:11:06;16.60;99.90
27164;DHT22;14685;50.618;7.024;2022-11-09T06:13:35;16.50;99.90
27164;DHT22;14685;50.618;7.024;2022-11-09T06:16:03;16.50;99.90
27164;DHT22;14685;50.618;7.024;2022-11-09T06:18:35;16.50;99.90
27164;DHT22;14685;50.618;7.024;2022-11-09T06:21:03;16.50;99.90
27164;DHT22;14685;50.618;7.024;2022-11-09T06:23:31;16.50;99.90
27164;DHT22;14685;50.618;7.024;2022-11-09T06:26:02;16.50;99.90
27164;DHT22;14685;50.618;7.024;2022-11-09T06:28:30;16.60;99.90
27164;DHT22;14685;50.618;7.024;2022-11-09T06:30:59;16.50;99.90
27164;DHT22;14685;50.618;7.024;2022-11-09T06:33:29;16.50;99.90
27164;DHT22;14685;50.618;7.024;2022-11-09T06:35:57;16.50;99.90
27164;DHT22;14685;50.618;7.024;2022-11-09T06:38:26;16.50;99.90
27164;DHT22;14685;50.618;7.024;2022-11-09T06:40:54;16.40;99.90
27164;DHT22;14685;50.618;7.024;2022-11-09T06:43:21;16.40;99.90
27164;DHT22;14685;50.618;7.024;2022-11-09T06:45:49;16.30;99.90
27164;DHT22;14685;50.618;7.024;2022-11-09T06:48:16;16.30;99.90
27164;DHT22;14685;50.618;7.024;2022-11-09T06:50:43;16.20;99.90
27164;DHT22;14685;50.618;7.024;2022-11-09T06:53:12;16.20;99.90
27164;DHT22;14685;50.618;7.024;2022-11-09T06:55:39;16.20;99.90
27164;DHT22;14685;50.618;7.024;2022-11-09T06:58:14;16.20;99.90
27164;DHT22;14685;50.618;7.024;2022-11-09T07:00:42;16.20;99.90
27164;DHT22;14685;50.618;7.024;2022-11-09T07:05:49;16.10;99.90
27164;DHT22;14685;50.618;7.024;2022-11-09T07:08:17;16.10;99.90
27164;DHT22;14685;50.618;7.024;2022-11-09T07:10:44;16.00;99.90
27164;DHT22;14685;50.618;7.024;2022-11-09T07:13:12;16.10;99.90
27164;DHT22;14685;50.618;7.024;2022-11-09T07:15:39;16.00;99.90
27164;DHT22;14685;50.618;7.024;2022-11-09T07:18:09;16.00;99.90
27164;DHT22;14685;50.618;7.024;2022-11-09T07:20:37;16.00;99.90
27164;DHT22;14685;50.618;7.024;2022-11-09T07:23:05;16.00;99.90
27164;DHT22;14685;50.618;7.024;2022-11-09T07:25:31;16.00;99.90
27164;DHT22;14685;50.618;7.024;2022-11-09T07:28:06;16.00;99.90
27164;DHT22;14685;50.618;7.024;2022-11-09T07:30:35;16.00;99.90
27164;DHT22;14685;50.618;7.024;2022-11-09T07:33:03;15.90;99.90
27164;DHT22;14685;50.618;7.024;2022-11-09T07:35:39;15.90;99.90
27164;DHT22;14685;50.618;7.024;2022-11-09T07:38:06;15.90;99.90
27164;DHT22;14685;50.618;7.024;2022-11-09T07:40:34;15.90;99.90
27164;DHT22;14685;50.618;7.024;2022-11-09T07:43:03;16.00;99.90
27164;DHT22;14685;50.618;7.024;2022-11-09T07:45:34;16.00;99.90
27164;DHT22;14685;50.618;7.024;2022-11-09T07:48:03;16.10;99.90
27164;DHT22;14685;50.618;7.024;2022-11-09T07:50:31;16.10;99.90
27164;DHT22;14685;50.618;7.024;2022-11-09T07:52:59;16.10;99.90
27164;DHT22;14685;50.618;7.024;2022-11-09T07:55:27;16.10;99.90
27164;DHT22;14685;50.618;7.024;2022-11-09T07:57:56;16.10;99.90
27164;DHT22;14685;50.618;7.024;2022-11-09T08:00:25;16.20;99.90
27164;DHT22;14685;50.618;7.024;2022-11-09T08:02:53;16.20;99.90
27164;DHT22;14685;50.618;7.024;2022-11-09T08:05:20;16.30;99.90
27164;DHT22;14685;50.618;7.024;2022-11-09T08:07:47;16.40;99.90
27164;DHT22;14685;50.618;7.024;2022-11-09T08:10:14;16.50;99.90
27164;DHT22;14685;50.618;7.024;2022-11-09T08:12:41;16.60;99.90
27164;DHT22;14685;50.618;7.024;2022-11-09T08:15:08;16.80;99.90
27164;DHT22;14685;50.618;7.024;2022-11-09T08:17:35;16.90;99.90
27164;DHT22;14685;50.618;7.024;2022-11-09T08:20:02;16.90;99.90
27164;DHT22;14685;50.618;7.024;2022-11-09T08:22:29;17.00;99.90
27164;DHT22;14685;50.618;7.024;2022-11-09T08:24:56;17.10;99.90
27164;DHT22;14685;50.618;7.024;2022-11-09T08:27:25;17.10;99.90
27164;DHT22;14685;50.618;7.024;2022-11-09T08:29:55;17.10;99.90
27164;DHT22;14685;50.618;7.024;2022-11-09T08:32:22;17.20;99.90
27164;DHT22;14685;50.618;7.024;2022-11-09T08:34:48;17.40;99.90
27164;DHT22;14685;50.618;7.024;2022-11-09T08:37:15;17.50;99.90
27164;DHT22;14685;50.618;7.024;2022-11-09T08:39:42;17.60;99.90
27164;DHT22;14685;50.618;7.024;2022-11-09T08:42:09;17.80;99.90
27164;DHT22;14685;50.618;7.024;2022-11-09T08:44:37;17.90;99.90
27164;DHT22;14685;50.618;7.024;2022-11-09T08:47:04;17.90;99.90
27164;DHT22;14685;50.618;7.024;2022-11-09T08:49:31;17.90;99.90
27164;DHT22;14685;50.618;7.024;2022-11-09T08:51:57;17.90;99.90
27164;DHT22;14685;50.618;7.024;2022-11-09T08:54:24;17.90;99.90
27164;DHT22;14685;50.618;7.024;2022-11-09T08:56:54;17.90;99.90
27164;DHT22;14685;50.618;7.024;2022-11-09T08:59:22;17.90;99.90
27164;DHT22;14685;50.618;7.024;2022-11-09T09:01:50;17.90;99.90
27164;DHT22;14685;50.618;7.024;2022-11-09T09:04:17;18.00;99.90
27164;DHT22;14685;50.618;7.024;2022-11-09T09:06:45;18.00;99.90
27164;DHT22;14685;50.618;7.024;2022-11-09T09:09:13;18.00;99.90
27164;DHT22;14685;50.618;7.024;2022-11-09T09:11:40;18.10;99.90
27164;DHT22;14685;50.618;7.024;2022-11-09T09:14:07;18.00;99.90
27164;DHT22;14685;50.618;7.024;2022-11-09T09:16:34;18.00;99.90
27164;DHT22;14685;50.618;7.024;2022-11-09T09:19:00;17.90;99.90
27164;DHT22;14685;50.618;7.024;2022-11-09T09:21:27;17.90;99.90
27164;DHT22;14685;50.618;7.024;2022-11-09T09:23:54;17.80;99.90
27164;DHT22;14685;50.618;7.024;2022-11-09T09:26:21;17.80;99.90
27164;DHT22;14685;50.618;7.024;2022-11-09T09:28:49;17.80;99.90
27164;DHT22;14685;50.618;7.024;2022-11-09T09:31:19;17.70;99.90
27164;DHT22;14685;50.618;7.024;2022-11-09T09:33:46;17.70;99.90
27164;DHT22;14685;50.618;7.024;2022-11-09T09:36:19;17.70;99.90
27164;DHT22;14685;50.618;7.024;2022-11-09T09:38:49;17.60;99.90
27164;DHT22;14685;50.618;7.024;2022-11-09T09:41:56;17.50;99.90
27164;DHT22;14685;50.618;7.024;2022-11-09T09:44:38;17.50;99.90
27164;DHT22;14685;50.618;7.024;2022-11-09T09:49:48;17.60;99.90
27164;DHT22;14685;50.618;7.024;2022-11-09T09:52:45;17.70;99.90
27164;DHT22;14685;50.618;7.024;2022-11-09T09:56:10;17.70;99.90
27164;DHT22;14685;50.618;7.024;2022-11-09T09:58:41;17.70;99.90
27164;DHT22;14685;50.618;7.024;2022-11-09T10:01:49;17.80;99.90
27164;DHT22;14685;50.618;7.024;2022-11-09T10:04:31;17.80;99.90
27164;DHT22;14685;50.618;7.024;2022-11-09T10:07:25;17.80;99.90
27164;DHT22;14685;50.618;7.024;2022-11-09T10:10:30;17.80;99.90
27164;DHT22;14685;50.618;7.024;2022-11-09T10:13:24;17.80;99.90
27164;DHT22;14685;50.618;7.024;2022-11-09T10:16:22;17.70;99.90
27164;DHT22;14685;50.618;7.024;2022-11-09T10:24:54;17.60;99.90
27164;DHT22;14685;50.618;7.024;2022-11-09T10:27:48;17.60;99.90
27164;DHT22;14685;50.618;7.024;2022-11-09T10:30:20;17.60;99.90
27164;DHT22;14685;50.618;7.024;2022-11-09T10:32:55;17.60;99.90
27164;DHT22;14685;50.618;7.024;2022-11-09T10:35:33;17.50;99.90
27164;DHT22;14685;50.618;7.024;2022-11-09T10:38:01;17.50;99.90
27164;DHT22;14685;50.618;7.024;2022-11-09T10:40:32;17.50;99.90
27164;DHT22;14685;50.618;7.024;2022-11-09T10:43:10;17.50;99.90
27164;DHT22;14685;50.618;7.024;2022-11-09T10:45:40;17.40;99.90
27164;DHT22;14685;50.618;7.024;2022-11-09T10:48:09;17.40;99.90
27164;DHT22;14685;50.618;7.024;2022-11-09T10:50:46;17.40;99.90
27164;DHT22;14685;50.618;7.024;2022-11-09T10:53:23;17.40;99.90
27164;DHT22;14685;50.618;7.024;2022-11-09T10:56:19;17.40;99.90
27164;DHT22;14685;50.618;7.024;2022-11-09T10:58:52;17.40;99.90
27164;DHT22;14685;50.618;7.024;2022-11-09T11:01:21;17.40;99.90
27164;DHT22;14685;50.618;7.024;2022-11-09T11:03:51;17.40;99.90
27164;DHT22;14685;50.618;7.024;2022-11-09T11:06:25;17.30;99.90
27164;DHT22;14685;50.618;7.024;2022-11-09T11:09:14;17.30;99.90
27164;DHT22;14685;50.618;7.024;2022-11-09T11:11:41;17.30;99.90
27164;DHT22;14685;50.618;7.024;2022-11-09T11:14:33;17.40;99.90
27164;DHT22;14685;50.618;7.024;2022-11-09T11:17:02;17.30;99.90
27164;DHT22;14685;50.618;7.024;2022-11-09T11:19:32;17.40;99.90
27164;DHT22;14685;50.618;7.024;2022-11-09T11:22:19;17.40;99.90
27164;DHT22;14685;50.618;7.024;2022-11-09T11:24:57;17.40;99.90
27164;DHT22;14685;50.618;7.024;2022-11-09T11:30:18;17.40;99.90
27164;DHT22;14685;50.618;7.024;2022-11-09T11:32:49;17.30;99.90
27164;DHT22;14685;50.618;7.024;2022-11-09T11:35:42;17.30;99.90
27164;DHT22;14685;50.618;7.024;2022-11-09T11:38:46;17.30;99.90
27164;DHT22;14685;50.618;7.024;2022-11-09T11:49:28;17.40;99.90
27164;DHT22;14685;50.618;7.024;2022-11-09T11:52:09;17.40;99.90
27164;DHT22;14685;50.618;7.024;2022-11-09T11:54:51;17.50;99.90
27164;DHT22;14685;50.618;7.024;2022-11-09T11:57:46;17.50;99.90
27164;DHT22;14685;50.618;7.024;2022-11-09T12:00:20;17.50;99.90
27164;DHT22;14685;50.618;7.024;2022-11-09T12:05:51;17.50;99.90
27164;DHT22;14685;50.618;7.024;2022-11-09T12:14:30;17.50;99.90
27164;DHT22;14685;50.618;7.024;2022-11-09T12:17:04;17.50;99.90
27164;DHT22;14685;50.618;7.024;2022-11-09T12:22:12;17.50;99.90
27164;DHT22;14685;50.618;7.024;2022-11-09T12:24:57;17.50;99.90
27164;DHT22;14685;50.618;7.024;2022-11-09T12:30:16;17.50;99.90
27164;DHT22;14685;50.618;7.024;2022-11-09T12:33:20;17.50;99.90
27164;DHT22;14685;50.618;7.024;2022-11-09T12:35:48;17.50;99.90
27164;DHT22;14685;50.618;7.024;2022-11-09T12:38:38;17.50;99.90
27164;DHT22;14685;50.618;7.024;2022-11-09T12:41:11;17.50;99.90
27164;DHT22;14685;50.618;7.024;2022-11-09T12:46:48;17.50;99.90
27164;DHT22;14685;50.618;7.024;2022-11-09T12:49:37;17.50;99.90
27164;DHT22;14685;50.618;7.024;2022-11-09T12:52:06;17.50;99.90
27164;DHT22;14685;50.618;7.024;2022-11-09T12:54:35;17.40;99.90
27164;DHT22;14685;50.618;7.024;2022-11-09T12:57:10;17.40;99.90
27164;DHT22;14685;50.618;7.024;2022-11-09T12:59:53;17.40;99.90
27164;DHT22;14685;50.618;7.024;2022-11-09T13:02:27;17.50;99.90
27164;DHT22;14685;50.618;7.024;2022-11-09T13:05:00;17.50;99.90
27164;DHT22;14685;50.618;7.024;2022-11-09T13:07:51;17.40;99.90
27164;DHT22;14685;50.618;7.024;2022-11-09T13:10:28;17.50;99.90
27164;DHT22;14685;50.618;7.024;2022-11-09T13:16:07;17.50;99.90
27164;DHT22;14685;50.618;7.024;2022-11-09T13:21:32;17.50;99.90
27164;DHT22;14685;50.618;7.024;2022-11-09T13:27:02;17.50;99.90
27164;DHT22;14685;50.618;7.024;2022-11-09T13:34:42;17.50;99.90
27164;DHT22;14685;50.618;7.024;2022-11-09T13:43:11;17.50;99.90
27164;DHT22;14685;50.618;7.024;2022-11-09T13:45:55;17.60;99.90
27164;DHT22;14685;50.618;7.024;2022-11-09T13:48:39;17.60;99.90
27164;DHT22;14685;50.618;7.024;2022-11-09T13:51:20;17.60;99.90
27164;DHT22;14685;50.618;7.024;2022-11-09T13:54:01;17.60;99.90
27164;DHT22;14685;50.618;7.024;2022-11-09T13:56:36;17.70;99.90
27164;DHT22;14685;50.618;7.024;2022-11-09T13:59:25;17.70;99.90
27164;DHT22;14685;50.618;7.024;2022-11-09T14:01:55;17.70;99.90
27164;DHT22;14685;50.618;7.024;2022-11-09T14:04:35;17.70;99.90
27164;DHT22;14685;50.618;7.024;2022-11-09T14:07:05;17.70;99.90
27164;DHT22;14685;50.618;7.024;2022-11-09T14:10:11;17.70;99.90
27164;DHT22;14685;50.618;7.024;2022-11-09T14:13:06;17.70;99.90
27164;DHT22;14685;50.618;7.024;2022-11-09T14:15:47;17.70;99.90
27164;DHT22;14685;50.618;7.024;2022-11-09T14:21:36;17.60;99.90
27164;DHT22;14685;50.618;7.024;2022-11-09T14:24:23;17.50;99.90
27164;DHT22;14685;50.618;7.024;2022-11-09T14:29:45;17.50;99.90
27164;DHT22;14685;50.618;7.024;2022-11-09T14:34:51;17.50;99.90
27164;DHT22;14685;50.618;7.024;2022-11-09T14:37:18;17.50;99.90
27164;DHT22;14685;50.618;7.024;2022-11-09T14:39:51;17.50;99.90
27164;DHT22;14685;50.618;7.024;2022-11-09T14:42:21;17.40;99.90
27164;DHT22;14685;50.618;7.024;2022-11-09T14:44:48;17.50;99.90
27164;DHT22;14685;50.618;7.024;2022-11-09T14:47:18;17.50;99.90
27164;DHT22;14685;50.618;7.024;2022-11-09T14:49:45;17.40;99.90
27164;DHT22;14685;50.618;7.024;2022-11-09T14:52:17;17.40;99.90
27164;DHT22;14685;50.618;7.024;2022-11-09T14:54:47;17.40;99.90
27164;DHT22;14685;50.618;7.024;2022-11-09T14:57:16;17.40;99.90
27164;DHT22;14685;50.618;7.024;2022-11-09T14:59:44;17.40;99.90
27164;DHT22;14685;50.618;7.024;2022-11-09T15:02:19;17.40;99.90
27164;DHT22;14685;50.618;7.024;2022-11-09T15:04:56;17.30;99.90
27164;DHT22;14685;50.618;7.024;2022-11-09T15:07:33;17.30;99.90
27164;DHT22;14685;50.618;7.024;2022-11-09T15:10:07;17.30;99.90
27164;DHT22;14685;50.618;7.024;2022-11-09T15:12:48;17.20;99.90
27164;DHT22;14685;50.618;7.024;2022-11-09T15:15:20;17.20;99.90
27164;DHT22;14685;50.618;7.024;2022-11-09T15:17:47;17.20;99.90
27164;DHT22;14685;50.618;7.024;2022-11-09T15:22:49;17.20;99.90
27164;DHT22;14685;50.618;7.024;2022-11-09T15:25:31;17.20;99.90
27164;DHT22;14685;50.618;7.024;2022-11-09T15:33:37;17.10;99.90
27164;DHT22;14685;50.618;7.024;2022-11-09T15:39:26;17.10;99.90
27164;DHT22;14685;50.618;7.024;2022-11-09T15:41:54;17.10;99.90
27164;DHT22;14685;50.618;7.024;2022-11-09T15:44:22;17.10;99.90
27164;DHT22;14685;50.618;7.024;2022-11-09T15:46:52;17.10;99.90
27164;DHT22;14685;50.618;7.024;2022-11-09T15:49:22;17.10;99.90
27164;DHT22;14685;50.618;7.024;2022-11-09T15:51:49;17.10;99.90
27164;DHT22;14685;50.618;7.024;2022-11-09T15:54:17;17.10;99.90
27164;DHT22;14685;50.618;7.024;2022-11-09T15:56:44;17.10;99.90
27164;DHT22;14685;50.618;7.024;2022-11-09T15:59:25;17.00;99.90
27164;DHT22;14685;50.618;7.024;2022-11-09T16:01:52;17.00;99.90
27164;DHT22;14685;50.618;7.024;2022-11-09T16:04:21;17.00;99.90
27164;DHT22;14685;50.618;7.024;2022-11-09T16:06:48;17.00;99.90
27164;DHT22;14685;50.618;7.024;2022-11-09T16:09:16;16.90;99.90
27164;DHT22;14685;50.618;7.024;2022-11-09T16:11:43;16.90;99.90
27164;DHT22;14685;50.618;7.024;2022-11-09T16:14:10;16.90;99.90
27164;DHT22;14685;50.618;7.024;2022-11-09T16:16:36;16.90;99.90
27164;DHT22;14685;50.618;7.024;2022-11-09T16:19:03;16.90;99.90
27164;DHT22;14685;50.618;7.024;2022-11-09T16:21:30;16.90;99.90
27164;DHT22;14685;50.618;7.024;2022-11-09T16:23:57;16.90;99.90
27164;DHT22;14685;50.618;7.024;2022-11-09T16:26:24;16.90;99.90
27164;DHT22;14685;50.618;7.024;2022-11-09T16:28:54;16.90;99.90
27164;DHT22;14685;50.618;7.024;2022-11-09T16:31:21;16.90;99.90
27164;DHT22;14685;50.618;7.024;2022-11-09T16:34:08;16.90;99.90
27164;DHT22;14685;50.618;7.024;2022-11-09T16:36:36;16.90;99.90
27164;DHT22;14685;50.618;7.024;2022-11-09T16:39:13;16.90;99.90
27164;DHT22;14685;50.618;7.024;2022-11-09T16:41:45;16.70;99.90
27164;DHT22;14685;50.618;7.024;2022-11-09T16:44:15;16.70;99.90
27164;DHT22;14685;50.618;7.024;2022-11-09T16:46:44;16.60;99.90
27164;DHT22;14685;50.618;7.024;2022-11-09T16:49:12;16.50;99.90
27164;DHT22;14685;50.618;7.024;2022-11-09T16:51:39;16.40;99.90
27164;DHT22;14685;50.618;7.024;2022-11-09T16:54:06;16.30;99.90
27164;DHT22;14685;50.618;7.024;2022-11-09T16:56:33;16.30;99.90
27164;DHT22;14685;50.618;7.024;2022-11-09T16:59:02;16.20;99.90
27164;DHT22;14685;50.618;7.024;2022-11-09T17:01:29;16.20;99.90
27164;DHT22;14685;50.618;7.024;2022-11-09T17:03:56;16.20;99.90
27164;DHT22;14685;50.618;7.024;2022-11-09T17:06:23;16.20;99.90
27164;DHT22;14685;50.618;7.024;2022-11-09T17:08:55;16.20;99.90
27164;DHT22;14685;50.618;7.024;2022-11-09T17:11:22;16.20;99.90
27164;DHT22;14685;50.618;7.024;2022-11-09T17:13:56;16.20;99.90